sensor_id;sensor_type;location;lat;lon;timestamp;P1;durP1;ratioP1;P2;durP2;ratioP2
54977;SDS011;40873;47.522;19.106;2022-07-29T00:00:00;4.78;;;3.50;;
54977;SDS011;40873;47.522;19.106;2022-07-29T00:02:47;4.10;;;2.80;;
54977;SDS011;40873;47.522;19.106;2022-07-29T00:05:14;7.68;;;3.47;;
54977;SDS011;40873;47.522;19.106;2022-07-29T00:07:41;4.25;;;3.65;;
54977;SDS011;40873;47.522;19.106;2022-07-29T00:10:08;7.30;;;3.58;;
54977;SDS011;40873;47.522;19.106;2022-07-29T00:12:35;5.15;;;3.88;;
54977;SDS011;40873;47.522;19.106;2022-07-29T00:15:03;6.28;;;3.38;;
54977;SDS011;40873;47.522;19.106;2022-07-29T00:17:30;4.32;;;3.05;;
54977;SDS011;40873;47.522;19.106;2022-07-29T00:19:57;4.28;;;3.00;;
54977;SDS011;40873;47.522;19.106;2022-07-29T00:22:24;4.63;;;3.08;;
54977;SDS011;40873;47.522;19.106;2022-07-29T00:24:51;3.58;;;3.00;;
54977;SDS011;40873;47.522;19.106;2022-07-29T00:27:18;4.13;;;3.40;;
54977;SDS011;40873;47.522;19.106;2022-07-29T00:29:45;5.22;;;3.20;;
54977;SDS011;40873;47.522;19.106;2022-07-29T00:32:12;7.13;;;3.20;;
54977;SDS011;40873;47.522;19.106;2022-07-29T00:34:39;3.88;;;3.30;;
54977;SDS011;40873;47.522;19.106;2022-07-29T00:37:24;7.28;;;2.88;;
54977;SDS011;40873;47.522;19.106;2022-07-29T00:39:51;4.38;;;3.25;;
54977;SDS011;40873;47.522;19.106;2022-07-29T00:42:18;6.05;;;3.55;;
54977;SDS011;40873;47.522;19.106;2022-07-29T00:44:45;4.55;;;3.13;;
54977;SDS011;40873;47.522;19.106;2022-07-29T00:47:12;5.28;;;3.15;;
54977;SDS011;40873;47.522;19.106;2022-07-29T00:49:40;3.80;;;3.20;;
54977;SDS011;40873;47.522;19.106;2022-07-29T00:52:08;5.45;;;3.67;;
54977;SDS011;40873;47.522;19.106;2022-07-29T00:54:37;8.48;;;3.63;;
54977;SDS011;40873;47.522;19.106;2022-07-29T00:57:10;4.60;;;3.40;;
54977;SDS011;40873;47.522;19.106;2022-07-29T00:59:38;6.53;;;4.25;;
54977;SDS011;40873;47.522;19.106;2022-07-29T01:02:05;5.95;;;3.50;;
54977;SDS011;40873;47.522;19.106;2022-07-29T01:04:32;7.30;;;3.47;;
54977;SDS011;40873;47.522;19.106;2022-07-29T01:07:03;4.15;;;3.20;;
54977;SDS011;40873;47.522;19.106;2022-07-29T01:09:31;5.68;;;3.00;;
54977;SDS011;40873;47.522;19.106;2022-07-29T01:12:12;6.35;;;4.00;;
54977;SDS011;40873;47.522;19.106;2022-07-29T01:14:42;5.15;;;3.35;;
54977;SDS011;40873;47.522;19.106;2022-07-29T01:17:17;6.57;;;3.47;;
54977;SDS011;40873;47.522;19.106;2022-07-29T01:31:11;4.57;;;3.70;;
54977;SDS011;40873;47.522;19.106;2022-07-29T01:33:52;4.25;;;3.45;;
54977;SDS011;40873;47.522;19.106;2022-07-29T01:36:43;4.68;;;3.45;;
54977;SDS011;40873;47.522;19.106;2022-07-29T01:39:19;6.30;;;3.83;;
54977;SDS011;40873;47.522;19.106;2022-07-29T01:41:49;6.00;;;3.90;;
54977;SDS011;40873;47.522;19.106;2022-07-29T01:44:27;6.32;;;3.95;;
54977;SDS011;40873;47.522;19.106;2022-07-29T01:47:00;9.70;;;3.95;;
54977;SDS011;40873;47.522;19.106;2022-07-29T01:49:31;6.00;;;3.65;;
54977;SDS011;40873;47.522;19.106;2022-07-29T01:52:04;5.22;;;3.75;;
54977;SDS011;40873;47.522;19.106;2022-07-29T01:54:41;6.88;;;4.05;;
54977;SDS011;40873;47.522;19.106;2022-07-29T01:57:13;7.35;;;3.42;;
54977;SDS011;40873;47.522;19.106;2022-07-29T01:59:43;5.97;;;3.58;;
54977;SDS011;40873;47.522;19.106;2022-07-29T02:02:13;4.38;;;3.38;;
54977;SDS011;40873;47.522;19.106;2022-07-29T02:04:43;6.75;;;3.67;;
54977;SDS011;40873;47.522;19.106;2022-07-29T02:07:16;6.57;;;3.40;;
54977;SDS011;40873;47.522;19.106;2022-07-29T02:09:46;5.07;;;3.47;;
54977;SDS011;40873;47.522;19.106;2022-07-29T02:12:16;5.18;;;3.47;;
54977;SDS011;40873;47.522;19.106;2022-07-29T02:14:47;6.38;;;3.47;;
54977;SDS011;40873;47.522;19.106;2022-07-29T02:17:21;5.68;;;3.90;;
54977;SDS011;40873;47.522;19.106;2022-07-29T02:19:51;10.40;;;3.65;;
54977;SDS011;40873;47.522;19.106;2022-07-29T02:22:23;5.33;;;3.60;;
54977;SDS011;40873;47.522;19.106;2022-07-29T02:24:52;4.38;;;3.08;;
54977;SDS011;40873;47.522;19.106;2022-07-29T02:27:19;7.70;;;3.80;;
54977;SDS011;40873;47.522;19.106;2022-07-29T02:29:47;6.07;;;3.85;;
54977;SDS011;40873;47.522;19.106;2022-07-29T02:32:16;5.07;;;3.78;;
54977;SDS011;40873;47.522;19.106;2022-07-29T02:34:44;7.20;;;4.00;;
54977;SDS011;40873;47.522;19.106;2022-07-29T02:37:12;6.78;;;3.75;;
54977;SDS011;40873;47.522;19.106;2022-07-29T02:39:43;4.97;;;3.75;;
54977;SDS011;40873;47.522;19.106;2022-07-29T02:42:11;7.35;;;4.00;;
54977;SDS011;40873;47.522;19.106;2022-07-29T02:44:41;5.80;;;3.63;;
54977;SDS011;40873;47.522;19.106;2022-07-29T02:49:55;7.25;;;3.65;;
54977;SDS011;40873;47.522;19.106;2022-07-29T02:55:05;7.03;;;3.95;;
54977;SDS011;40873;47.522;19.106;2022-07-29T02:57:36;6.20;;;3.42;;
54977;SDS011;40873;47.522;19.106;2022-07-29T03:00:21;5.90;;;4.63;;
54977;SDS011;40873;47.522;19.106;2022-07-29T03:02:52;6.38;;;4.38;;
54977;SDS011;40873;47.522;19.106;2022-07-29T03:05:22;7.57;;;3.90;;
54977;SDS011;40873;47.522;19.106;2022-07-29T03:07:57;6.57;;;4.05;;
54977;SDS011;40873;47.522;19.106;2022-07-29T03:10:27;8.25;;;3.78;;
54977;SDS011;40873;47.522;19.106;2022-07-29T03:12:55;7.18;;;4.18;;
54977;SDS011;40873;47.522;19.106;2022-07-29T03:15:24;9.73;;;4.40;;
54977;SDS011;40873;47.522;19.106;2022-07-29T03:17:52;6.97;;;4.88;;
54977;SDS011;40873;47.522;19.106;2022-07-29T03:20:20;14.50;;;5.75;;
54977;SDS011;40873;47.522;19.106;2022-07-29T03:22:47;14.27;;;4.82;;
54977;SDS011;40873;47.522;19.106;2022-07-29T03:25:15;15.18;;;4.78;;
54977;SDS011;40873;47.522;19.106;2022-07-29T03:27:44;17.40;;;6.35;;
54977;SDS011;40873;47.522;19.106;2022-07-29T03:30:11;14.27;;;4.70;;
54977;SDS011;40873;47.522;19.106;2022-07-29T03:32:47;7.05;;;3.78;;
54977;SDS011;40873;47.522;19.106;2022-07-29T03:35:17;8.45;;;4.88;;
54977;SDS011;40873;47.522;19.106;2022-07-29T03:37:49;10.77;;;4.65;;
54977;SDS011;40873;47.522;19.106;2022-07-29T03:40:22;10.07;;;4.50;;
54977;SDS011;40873;47.522;19.106;2022-07-29T03:42:54;24.95;;;5.07;;
54977;SDS011;40873;47.522;19.106;2022-07-29T03:45:22;6.28;;;4.05;;
54977;SDS011;40873;47.522;19.106;2022-07-29T03:47:53;12.30;;;4.88;;
54977;SDS011;40873;47.522;19.106;2022-07-29T03:50:27;6.50;;;3.90;;
54977;SDS011;40873;47.522;19.106;2022-07-29T03:52:57;11.27;;;4.57;;
54977;SDS011;40873;47.522;19.106;2022-07-29T03:55:25;10.35;;;4.95;;
54977;SDS011;40873;47.522;19.106;2022-07-29T03:57:54;9.15;;;4.32;;
54977;SDS011;40873;47.522;19.106;2022-07-29T04:00:23;10.02;;;5.00;;
54977;SDS011;40873;47.522;19.106;2022-07-29T04:02:51;6.88;;;4.03;;
54977;SDS011;40873;47.522;19.106;2022-07-29T04:05:19;7.18;;;3.72;;
54977;SDS011;40873;47.522;19.106;2022-07-29T04:07:46;5.22;;;4.00;;
54977;SDS011;40873;47.522;19.106;2022-07-29T04:10:15;11.50;;;4.10;;
54977;SDS011;40873;47.522;19.106;2022-07-29T04:12:55;6.30;;;3.90;;
54977;SDS011;40873;47.522;19.106;2022-07-29T04:15:22;7.22;;;4.50;;
54977;SDS011;40873;47.522;19.106;2022-07-29T04:17:49;5.45;;;3.92;;
54977;SDS011;40873;47.522;19.106;2022-07-29T04:20:16;10.48;;;4.25;;
54977;SDS011;40873;47.522;19.106;2022-07-29T04:22:43;4.88;;;4.05;;
54977;SDS011;40873;47.522;19.106;2022-07-29T04:25:10;9.88;;;4.63;;
54977;SDS011;40873;47.522;19.106;2022-07-29T04:27:37;6.25;;;3.80;;
54977;SDS011;40873;47.522;19.106;2022-07-29T04:30:24;7.20;;;4.07;;
54977;SDS011;40873;47.522;19.106;2022-07-29T04:32:51;9.38;;;4.50;;
54977;SDS011;40873;47.522;19.106;2022-07-29T04:35:18;6.20;;;4.47;;
54977;SDS011;40873;47.522;19.106;2022-07-29T04:37:46;4.13;;;3.65;;
54977;SDS011;40873;47.522;19.106;2022-07-29T04:40:13;6.22;;;4.18;;
54977;SDS011;40873;47.522;19.106;2022-07-29T04:42:40;7.75;;;4.05;;
54977;SDS011;40873;47.522;19.106;2022-07-29T04:45:13;5.82;;;4.00;;
54977;SDS011;40873;47.522;19.106;2022-07-29T04:47:41;5.38;;;4.28;;
54977;SDS011;40873;47.522;19.106;2022-07-29T04:50:08;5.82;;;4.32;;
54977;SDS011;40873;47.522;19.106;2022-07-29T04:52:36;6.38;;;4.13;;
54977;SDS011;40873;47.522;19.106;2022-07-29T04:55:04;6.70;;;4.13;;
54977;SDS011;40873;47.522;19.106;2022-07-29T04:57:31;8.98;;;4.30;;
54977;SDS011;40873;47.522;19.106;2022-07-29T04:59:58;8.25;;;4.30;;
54977;SDS011;40873;47.522;19.106;2022-07-29T05:02:25;7.10;;;4.50;;
54977;SDS011;40873;47.522;19.106;2022-07-29T05:04:52;7.85;;;4.03;;
54977;SDS011;40873;47.522;19.106;2022-07-29T05:07:19;7.28;;;3.90;;
54977;SDS011;40873;47.522;19.106;2022-07-29T05:09:47;8.98;;;3.95;;
54977;SDS011;40873;47.522;19.106;2022-07-29T05:12:13;4.72;;;4.05;;
54977;SDS011;40873;47.522;19.106;2022-07-29T05:14:40;6.00;;;3.75;;
54977;SDS011;40873;47.522;19.106;2022-07-29T05:17:07;7.43;;;4.30;;
54977;SDS011;40873;47.522;19.106;2022-07-29T05:19:34;6.80;;;3.78;;
54977;SDS011;40873;47.522;19.106;2022-07-29T05:22:05;7.60;;;3.78;;
54977;SDS011;40873;47.522;19.106;2022-07-29T05:24:32;10.35;;;4.15;;
54977;SDS011;40873;47.522;19.106;2022-07-29T05:26:59;5.93;;;3.85;;
54977;SDS011;40873;47.522;19.106;2022-07-29T05:29:26;9.90;;;4.03;;
54977;SDS011;40873;47.522;19.106;2022-07-29T05:32:10;7.03;;;4.07;;
54977;SDS011;40873;47.522;19.106;2022-07-29T05:34:38;6.97;;;4.07;;
54977;SDS011;40873;47.522;19.106;2022-07-29T05:37:20;13.50;;;4.32;;
54977;SDS011;40873;47.522;19.106;2022-07-29T05:39:47;5.72;;;3.92;;
54977;SDS011;40873;47.522;19.106;2022-07-29T05:42:25;6.35;;;4.35;;
54977;SDS011;40873;47.522;19.106;2022-07-29T05:44:53;5.35;;;4.30;;
54977;SDS011;40873;47.522;19.106;2022-07-29T05:47:20;8.00;;;4.35;;
54977;SDS011;40873;47.522;19.106;2022-07-29T05:49:47;6.97;;;4.57;;
54977;SDS011;40873;47.522;19.106;2022-07-29T05:52:14;5.70;;;4.40;;
54977;SDS011;40873;47.522;19.106;2022-07-29T05:54:41;9.52;;;4.15;;
54977;SDS011;40873;47.522;19.106;2022-07-29T05:57:14;7.80;;;3.88;;
54977;SDS011;40873;47.522;19.106;2022-07-29T05:59:42;5.57;;;4.72;;
54977;SDS011;40873;47.522;19.106;2022-07-29T06:02:09;5.25;;;4.53;;
54977;SDS011;40873;47.522;19.106;2022-07-29T06:04:36;5.75;;;3.88;;
54977;SDS011;40873;47.522;19.106;2022-07-29T06:07:03;5.72;;;4.20;;
54977;SDS011;40873;47.522;19.106;2022-07-29T06:09:30;5.97;;;4.28;;
54977;SDS011;40873;47.522;19.106;2022-07-29T06:12:02;9.70;;;4.22;;
54977;SDS011;40873;47.522;19.106;2022-07-29T06:14:29;5.47;;;4.25;;
54977;SDS011;40873;47.522;19.106;2022-07-29T06:16:56;8.75;;;6.03;;
54977;SDS011;40873;47.522;19.106;2022-07-29T06:19:23;5.85;;;4.15;;
54977;SDS011;40873;47.522;19.106;2022-07-29T06:21:50;5.53;;;4.07;;
54977;SDS011;40873;47.522;19.106;2022-07-29T06:24:17;10.20;;;4.30;;
54977;SDS011;40873;47.522;19.106;2022-07-29T06:26:45;8.07;;;4.60;;
54977;SDS011;40873;47.522;19.106;2022-07-29T06:29:11;5.85;;;3.72;;
54977;SDS011;40873;47.522;19.106;2022-07-29T06:31:38;7.97;;;5.22;;
54977;SDS011;40873;47.522;19.106;2022-07-29T06:34:06;9.48;;;4.35;;
54977;SDS011;40873;47.522;19.106;2022-07-29T06:36:36;8.82;;;4.25;;
54977;SDS011;40873;47.522;19.106;2022-07-29T06:39:08;8.05;;;3.92;;
54977;SDS011;40873;47.522;19.106;2022-07-29T06:41:37;7.30;;;4.00;;
54977;SDS011;40873;47.522;19.106;2022-07-29T06:44:04;6.60;;;3.85;;
54977;SDS011;40873;47.522;19.106;2022-07-29T06:46:31;7.25;;;4.22;;
54977;SDS011;40873;47.522;19.106;2022-07-29T06:48:59;6.05;;;4.35;;
54977;SDS011;40873;47.522;19.106;2022-07-29T06:51:28;13.48;;;4.45;;
54977;SDS011;40873;47.522;19.106;2022-07-29T06:53:55;5.93;;;3.97;;
54977;SDS011;40873;47.522;19.106;2022-07-29T06:56:30;9.60;;;4.28;;
54977;SDS011;40873;47.522;19.106;2022-07-29T06:59:04;6.25;;;4.57;;
54977;SDS011;40873;47.522;19.106;2022-07-29T07:01:31;7.40;;;4.63;;
54977;SDS011;40873;47.522;19.106;2022-07-29T07:03:58;6.32;;;4.45;;
54977;SDS011;40873;47.522;19.106;2022-07-29T07:06:25;7.80;;;4.63;;
54977;SDS011;40873;47.522;19.106;2022-07-29T07:08:52;6.10;;;4.10;;
54977;SDS011;40873;47.522;19.106;2022-07-29T07:11:20;8.77;;;4.53;;
54977;SDS011;40873;47.522;19.106;2022-07-29T07:13:47;5.35;;;4.30;;
54977;SDS011;40873;47.522;19.106;2022-07-29T07:16:13;7.90;;;4.10;;
54977;SDS011;40873;47.522;19.106;2022-07-29T07:18:40;5.65;;;4.53;;
54977;SDS011;40873;47.522;19.106;2022-07-29T07:21:07;8.55;;;4.20;;
54977;SDS011;40873;47.522;19.106;2022-07-29T07:23:44;5.53;;;4.25;;
54977;SDS011;40873;47.522;19.106;2022-07-29T07:26:11;5.38;;;3.80;;
54977;SDS011;40873;47.522;19.106;2022-07-29T07:28:38;11.10;;;4.90;;
54977;SDS011;40873;47.522;19.106;2022-07-29T07:31:04;8.23;;;4.22;;
54977;SDS011;40873;47.522;19.106;2022-07-29T07:33:31;8.45;;;4.40;;
54977;SDS011;40873;47.522;19.106;2022-07-29T07:35:58;6.05;;;4.43;;
54977;SDS011;40873;47.522;19.106;2022-07-29T07:38:25;7.40;;;5.30;;
54977;SDS011;40873;47.522;19.106;2022-07-29T07:40:52;11.23;;;5.22;;
54977;SDS011;40873;47.522;19.106;2022-07-29T07:43:19;7.82;;;5.05;;
54977;SDS011;40873;47.522;19.106;2022-07-29T07:45:46;13.63;;;7.80;;
54977;SDS011;40873;47.522;19.106;2022-07-29T07:48:13;7.60;;;5.03;;
54977;SDS011;40873;47.522;19.106;2022-07-29T07:50:40;7.75;;;5.00;;
54977;SDS011;40873;47.522;19.106;2022-07-29T07:53:07;10.90;;;4.97;;
54977;SDS011;40873;47.522;19.106;2022-07-29T07:55:33;7.78;;;4.75;;
54977;SDS011;40873;47.522;19.106;2022-07-29T07:58:26;7.13;;;4.50;;
54977;SDS011;40873;47.522;19.106;2022-07-29T08:00:53;8.82;;;4.95;;
54977;SDS011;40873;47.522;19.106;2022-07-29T08:03:20;11.32;;;6.63;;
54977;SDS011;40873;47.522;19.106;2022-07-29T08:05:47;7.35;;;5.20;;
54977;SDS011;40873;47.522;19.106;2022-07-29T08:08:17;6.35;;;5.13;;
54977;SDS011;40873;47.522;19.106;2022-07-29T08:10:44;9.38;;;5.72;;
54977;SDS011;40873;47.522;19.106;2022-07-29T08:13:20;8.10;;;4.82;;
54977;SDS011;40873;47.522;19.106;2022-07-29T08:15:48;9.73;;;5.28;;
54977;SDS011;40873;47.522;19.106;2022-07-29T08:18:24;11.90;;;7.07;;
54977;SDS011;40873;47.522;19.106;2022-07-29T08:20:52;9.52;;;5.20;;
54977;SDS011;40873;47.522;19.106;2022-07-29T08:23:19;8.63;;;4.03;;
54977;SDS011;40873;47.522;19.106;2022-07-29T08:25:47;12.48;;;6.15;;
54977;SDS011;40873;47.522;19.106;2022-07-29T08:28:16;6.95;;;5.32;;
54977;SDS011;40873;47.522;19.106;2022-07-29T08:30:43;5.35;;;4.60;;
54977;SDS011;40873;47.522;19.106;2022-07-29T08:33:10;7.55;;;4.93;;
54977;SDS011;40873;47.522;19.106;2022-07-29T08:35:38;9.75;;;5.57;;
54977;SDS011;40873;47.522;19.106;2022-07-29T08:38:05;10.05;;;5.35;;
54977;SDS011;40873;47.522;19.106;2022-07-29T08:40:32;7.07;;;5.03;;
54977;SDS011;40873;47.522;19.106;2022-07-29T08:43:08;6.20;;;4.15;;
54977;SDS011;40873;47.522;19.106;2022-07-29T08:45:40;4.60;;;3.97;;
54977;SDS011;40873;47.522;19.106;2022-07-29T08:48:14;8.15;;;4.43;;
54977;SDS011;40873;47.522;19.106;2022-07-29T08:50:43;7.90;;;4.43;;
54977;SDS011;40873;47.522;19.106;2022-07-29T08:53:13;7.47;;;4.32;;
54977;SDS011;40873;47.522;19.106;2022-07-29T08:55:42;4.75;;;4.20;;
54977;SDS011;40873;47.522;19.106;2022-07-29T08:58:10;6.05;;;3.90;;
54977;SDS011;40873;47.522;19.106;2022-07-29T09:00:42;5.25;;;4.05;;
54977;SDS011;40873;47.522;19.106;2022-07-29T09:03:15;7.78;;;4.18;;
54977;SDS011;40873;47.522;19.106;2022-07-29T09:05:46;8.15;;;4.68;;
54977;SDS011;40873;47.522;19.106;2022-07-29T09:08:14;5.72;;;3.85;;
54977;SDS011;40873;47.522;19.106;2022-07-29T09:10:42;5.95;;;4.78;;
54977;SDS011;40873;47.522;19.106;2022-07-29T09:13:10;12.82;;;4.50;;
54977;SDS011;40873;47.522;19.106;2022-07-29T09:15:37;4.80;;;4.28;;
54977;SDS011;40873;47.522;19.106;2022-07-29T09:18:03;7.03;;;4.47;;
54977;SDS011;40873;47.522;19.106;2022-07-29T09:20:30;5.30;;;4.30;;
54977;SDS011;40873;47.522;19.106;2022-07-29T09:23:16;8.05;;;4.60;;
54977;SDS011;40873;47.522;19.106;2022-07-29T09:25:49;7.60;;;4.22;;
54977;SDS011;40873;47.522;19.106;2022-07-29T09:28:17;10.07;;;4.30;;
54977;SDS011;40873;47.522;19.106;2022-07-29T09:33:19;6.15;;;3.55;;
54977;SDS011;40873;47.522;19.106;2022-07-29T09:35:58;3.95;;;2.95;;
54977;SDS011;40873;47.522;19.106;2022-07-29T09:38:27;5.05;;;3.85;;
54977;SDS011;40873;47.522;19.106;2022-07-29T09:40:58;5.32;;;4.07;;
54977;SDS011;40873;47.522;19.106;2022-07-29T09:43:32;6.10;;;3.55;;
54977;SDS011;40873;47.522;19.106;2022-07-29T09:46:10;4.15;;;3.17;;
54977;SDS011;40873;47.522;19.106;2022-07-29T09:48:40;6.38;;;3.42;;
54977;SDS011;40873;47.522;19.106;2022-07-29T09:51:20;6.38;;;2.92;;
54977;SDS011;40873;47.522;19.106;2022-07-29T09:54:24;8.98;;;3.10;;
54977;SDS011;40873;47.522;19.106;2022-07-29T09:56:52;5.90;;;2.95;;
54977;SDS011;40873;47.522;19.106;2022-07-29T09:59:20;4.80;;;3.17;;
54977;SDS011;40873;47.522;19.106;2022-07-29T10:01:50;5.72;;;3.40;;
54977;SDS011;40873;47.522;19.106;2022-07-29T10:04:18;4.97;;;2.90;;
54977;SDS011;40873;47.522;19.106;2022-07-29T10:06:56;4.93;;;2.92;;
54977;SDS011;40873;47.522;19.106;2022-07-29T10:09:30;5.70;;;2.88;;
54977;SDS011;40873;47.522;19.106;2022-07-29T10:14:35;5.10;;;3.03;;
54977;SDS011;40873;47.522;19.106;2022-07-29T10:17:03;7.50;;;3.53;;
54977;SDS011;40873;47.522;19.106;2022-07-29T10:19:32;4.75;;;3.00;;
54977;SDS011;40873;47.522;19.106;2022-07-29T10:22:02;4.22;;;2.70;;
54977;SDS011;40873;47.522;19.106;2022-07-29T10:24:32;7.50;;;2.90;;
54977;SDS011;40873;47.522;19.106;2022-07-29T10:26:59;4.88;;;2.58;;
54977;SDS011;40873;47.522;19.106;2022-07-29T10:29:28;5.10;;;3.33;;
54977;SDS011;40873;47.522;19.106;2022-07-29T10:34:36;4.53;;;3.00;;
54977;SDS011;40873;47.522;19.106;2022-07-29T10:40:15;8.65;;;3.35;;
54977;SDS011;40873;47.522;19.106;2022-07-29T10:43:27;5.85;;;3.47;;
54977;SDS011;40873;47.522;19.106;2022-07-29T10:45:59;5.18;;;3.42;;
54977;SDS011;40873;47.522;19.106;2022-07-29T10:48:27;6.43;;;3.72;;
54977;SDS011;40873;47.522;19.106;2022-07-29T10:51:01;9.05;;;4.22;;
54977;SDS011;40873;47.522;19.106;2022-07-29T10:53:50;5.80;;;3.70;;
54977;SDS011;40873;47.522;19.106;2022-07-29T10:56:37;7.95;;;3.15;;
54977;SDS011;40873;47.522;19.106;2022-07-29T11:01:48;4.35;;;2.58;;
54977;SDS011;40873;47.522;19.106;2022-07-29T11:07:09;3.88;;;2.90;;
54977;SDS011;40873;47.522;19.106;2022-07-29T11:09:37;4.82;;;3.03;;
54977;SDS011;40873;47.522;19.106;2022-07-29T11:15:05;5.20;;;2.97;;
54977;SDS011;40873;47.522;19.106;2022-07-29T11:28:51;8.80;;;2.80;;
54977;SDS011;40873;47.522;19.106;2022-07-29T11:31:34;4.20;;;2.45;;
54977;SDS011;40873;47.522;19.106;2022-07-29T11:39:49;6.25;;;3.13;;
54977;SDS011;40873;47.522;19.106;2022-07-29T11:45:09;6.10;;;2.47;;
54977;SDS011;40873;47.522;19.106;2022-07-29T11:47:58;4.30;;;2.40;;
54977;SDS011;40873;47.522;19.106;2022-07-29T11:50:45;4.38;;;2.70;;
54977;SDS011;40873;47.522;19.106;2022-07-29T11:53:14;3.78;;;2.30;;
54977;SDS011;40873;47.522;19.106;2022-07-29T11:55:41;7.25;;;2.65;;
54977;SDS011;40873;47.522;19.106;2022-07-29T11:58:23;5.82;;;3.08;;
54977;SDS011;40873;47.522;19.106;2022-07-29T12:00:52;6.93;;;2.65;;
54977;SDS011;40873;47.522;19.106;2022-07-29T12:03:28;3.05;;;2.60;;
54977;SDS011;40873;47.522;19.106;2022-07-29T12:06:15;4.15;;;2.92;;
54977;SDS011;40873;47.522;19.106;2022-07-29T12:08:44;3.35;;;2.63;;
54977;SDS011;40873;47.522;19.106;2022-07-29T12:11:18;7.35;;;3.13;;
54977;SDS011;40873;47.522;19.106;2022-07-29T12:13:49;2.97;;;2.67;;
54977;SDS011;40873;47.522;19.106;2022-07-29T12:16:17;4.88;;;2.80;;
54977;SDS011;40873;47.522;19.106;2022-07-29T12:18:58;5.05;;;2.63;;
54977;SDS011;40873;47.522;19.106;2022-07-29T12:21:28;4.75;;;3.45;;
54977;SDS011;40873;47.522;19.106;2022-07-29T12:24:22;7.03;;;2.72;;
54977;SDS011;40873;47.522;19.106;2022-07-29T12:26:59;3.85;;;2.60;;
54977;SDS011;40873;47.522;19.106;2022-07-29T12:29:28;3.33;;;2.75;;
54977;SDS011;40873;47.522;19.106;2022-07-29T12:32:00;4.05;;;2.55;;
54977;SDS011;40873;47.522;19.106;2022-07-29T12:34:29;5.45;;;2.70;;
54977;SDS011;40873;47.522;19.106;2022-07-29T12:36:56;5.53;;;2.25;;
54977;SDS011;40873;47.522;19.106;2022-07-29T12:39:23;4.82;;;2.63;;
54977;SDS011;40873;47.522;19.106;2022-07-29T12:41:53;5.85;;;2.40;;
54977;SDS011;40873;47.522;19.106;2022-07-29T12:44:46;6.53;;;2.30;;
54977;SDS011;40873;47.522;19.106;2022-07-29T12:47:15;5.10;;;2.50;;
54977;SDS011;40873;47.522;19.106;2022-07-29T12:49:42;3.83;;;2.30;;
54977;SDS011;40873;47.522;19.106;2022-07-29T12:54:54;5.15;;;2.50;;
54977;SDS011;40873;47.522;19.106;2022-07-29T12:57:21;4.78;;;2.50;;
54977;SDS011;40873;47.522;19.106;2022-07-29T13:00:07;4.05;;;2.65;;
54977;SDS011;40873;47.522;19.106;2022-07-29T13:02:40;5.28;;;2.80;;
54977;SDS011;40873;47.522;19.106;2022-07-29T13:05:08;6.13;;;2.33;;
54977;SDS011;40873;47.522;19.106;2022-07-29T13:07:36;6.28;;;2.80;;
54977;SDS011;40873;47.522;19.106;2022-07-29T13:10:21;3.58;;;2.58;;
54977;SDS011;40873;47.522;19.106;2022-07-29T13:13:09;2.70;;;2.20;;
54977;SDS011;40873;47.522;19.106;2022-07-29T13:15:42;4.10;;;2.97;;
54977;SDS011;40873;47.522;19.106;2022-07-29T13:20:57;3.80;;;2.47;;
54977;SDS011;40873;47.522;19.106;2022-07-29T13:23:37;2.35;;;2.10;;
54977;SDS011;40873;47.522;19.106;2022-07-29T13:26:05;6.05;;;3.17;;
54977;SDS011;40873;47.522;19.106;2022-07-29T13:28:35;2.72;;;2.40;;
54977;SDS011;40873;47.522;19.106;2022-07-29T13:31:02;3.63;;;2.42;;
54977;SDS011;40873;47.522;19.106;2022-07-29T13:33:31;3.33;;;2.35;;
54977;SDS011;40873;47.522;19.106;2022-07-29T13:35:58;4.60;;;2.40;;
54977;SDS011;40873;47.522;19.106;2022-07-29T13:38:24;5.65;;;3.10;;
54977;SDS011;40873;47.522;19.106;2022-07-29T13:40:56;5.80;;;2.47;;
54977;SDS011;40873;47.522;19.106;2022-07-29T13:43:24;6.05;;;3.13;;
54977;SDS011;40873;47.522;19.106;2022-07-29T13:45:50;5.20;;;2.83;;
54977;SDS011;40873;47.522;19.106;2022-07-29T13:48:18;4.90;;;2.90;;
54977;SDS011;40873;47.522;19.106;2022-07-29T13:50:45;3.92;;;2.70;;
54977;SDS011;40873;47.522;19.106;2022-07-29T13:53:12;5.03;;;2.30;;
54977;SDS011;40873;47.522;19.106;2022-07-29T13:55:43;6.03;;;2.90;;
54977;SDS011;40873;47.522;19.106;2022-07-29T13:58:11;6.95;;;2.90;;
54977;SDS011;40873;47.522;19.106;2022-07-29T14:00:38;5.55;;;2.88;;
54977;SDS011;40873;47.522;19.106;2022-07-29T14:03:05;3.72;;;2.53;;
54977;SDS011;40873;47.522;19.106;2022-07-29T14:05:32;5.03;;;3.22;;
54977;SDS011;40873;47.522;19.106;2022-07-29T14:07:59;3.15;;;2.53;;
54977;SDS011;40873;47.522;19.106;2022-07-29T14:10:26;5.22;;;2.95;;
54977;SDS011;40873;47.522;19.106;2022-07-29T14:12:53;3.28;;;2.53;;
54977;SDS011;40873;47.522;19.106;2022-07-29T14:15:20;5.38;;;2.60;;
54977;SDS011;40873;47.522;19.106;2022-07-29T14:17:47;5.38;;;2.65;;
54977;SDS011;40873;47.522;19.106;2022-07-29T14:20:14;3.33;;;2.30;;
54977;SDS011;40873;47.522;19.106;2022-07-29T14:22:42;3.60;;;2.35;;
54977;SDS011;40873;47.522;19.106;2022-07-29T14:25:10;5.18;;;2.30;;
54977;SDS011;40873;47.522;19.106;2022-07-29T14:27:41;8.32;;;2.70;;
54977;SDS011;40873;47.522;19.106;2022-07-29T14:30:09;4.32;;;2.55;;
54977;SDS011;40873;47.522;19.106;2022-07-29T14:32:37;6.28;;;2.83;;
54977;SDS011;40873;47.522;19.106;2022-07-29T14:35:04;3.72;;;2.40;;
54977;SDS011;40873;47.522;19.106;2022-07-29T14:37:32;4.57;;;2.47;;
54977;SDS011;40873;47.522;19.106;2022-07-29T14:40:06;7.55;;;2.95;;
54977;SDS011;40873;47.522;19.106;2022-07-29T14:42:34;3.95;;;2.70;;
54977;SDS011;40873;47.522;19.106;2022-07-29T14:45:02;5.22;;;2.95;;
54977;SDS011;40873;47.522;19.106;2022-07-29T14:47:31;11.02;;;2.92;;
54977;SDS011;40873;47.522;19.106;2022-07-29T14:49:58;8.38;;;3.00;;
54977;SDS011;40873;47.522;19.106;2022-07-29T14:52:26;6.60;;;2.60;;
54977;SDS011;40873;47.522;19.106;2022-07-29T14:54:53;4.35;;;3.10;;
54977;SDS011;40873;47.522;19.106;2022-07-29T14:57:19;3.85;;;2.60;;
54977;SDS011;40873;47.522;19.106;2022-07-29T14:59:46;7.75;;;2.33;;
54977;SDS011;40873;47.522;19.106;2022-07-29T15:02:13;3.35;;;2.25;;
54977;SDS011;40873;47.522;19.106;2022-07-29T15:04:40;6.25;;;2.80;;
54977;SDS011;40873;47.522;19.106;2022-07-29T15:07:07;3.72;;;2.90;;
54977;SDS011;40873;47.522;19.106;2022-07-29T15:09:34;4.45;;;2.85;;
54977;SDS011;40873;47.522;19.106;2022-07-29T15:12:15;3.42;;;2.35;;
54977;SDS011;40873;47.522;19.106;2022-07-29T15:14:42;4.30;;;2.65;;
54977;SDS011;40873;47.522;19.106;2022-07-29T15:17:08;3.47;;;2.90;;
54977;SDS011;40873;47.522;19.106;2022-07-29T15:19:35;5.55;;;2.35;;
54977;SDS011;40873;47.522;19.106;2022-07-29T15:22:03;5.30;;;2.92;;
54977;SDS011;40873;47.522;19.106;2022-07-29T15:24:31;5.63;;;3.67;;
54977;SDS011;40873;47.522;19.106;2022-07-29T15:26:58;5.70;;;2.63;;
54977;SDS011;40873;47.522;19.106;2022-07-29T15:29:25;5.05;;;3.00;;
54977;SDS011;40873;47.522;19.106;2022-07-29T15:31:52;3.85;;;2.55;;
54977;SDS011;40873;47.522;19.106;2022-07-29T15:34:19;5.25;;;2.78;;
54977;SDS011;40873;47.522;19.106;2022-07-29T15:36:47;6.30;;;2.70;;
54977;SDS011;40873;47.522;19.106;2022-07-29T15:39:18;3.72;;;2.90;;
54977;SDS011;40873;47.522;19.106;2022-07-29T15:41:46;4.93;;;2.90;;
54977;SDS011;40873;47.522;19.106;2022-07-29T15:44:13;4.50;;;3.00;;
54977;SDS011;40873;47.522;19.106;2022-07-29T15:46:40;3.80;;;2.42;;
54977;SDS011;40873;47.522;19.106;2022-07-29T15:49:27;4.53;;;2.88;;
54977;SDS011;40873;47.522;19.106;2022-07-29T15:52:17;4.38;;;2.63;;